ADDS METAR Data INFO
IDs: Format: Raw Decoded Include TAF

Data at: 0913 UTC 20 Feb 2018

METAR for:KFNL (Fort Collins/Lovelan, CO, US)
Text:KFNL 200856Z AUTO 10005KT 10SM OVC035 M17/M20 A2984 RMK AO2 SLP176 60000 T11671200 51024 FZRANO
Temperature:-16.7°C ( 2°F)
Dewpoint:-20.0°C ( -4°F) [RH = 76%]
Pressure (altimeter):29.84 inches Hg (1010.6 mb) [Sea level pressure: 1017.6 mb]
Winds:from the E (100 degrees) at 6 MPH (5 knots; 2.6 m/s)
Visibility:10 or more sm (16+ km)
Ceiling:3500 feet AGL
Clouds: overcast cloud deck at 3500 feet AGL
QC Flag:automated observation with no human augmentation
Text:KFNL 200756Z AUTO 04006KT 10SM OVC035 M17/M19 A2982 RMK AO2 SNE34 SLP169 P0000 T11671194 FZRANO
Temperature:-16.7°C ( 2°F)
Dewpoint:-19.4°C ( -3°F) [RH = 80%]
Pressure (altimeter):29.82 inches Hg (1009.9 mb) [Sea level pressure: 1016.9 mb]
Winds:from the NE (40 degrees) at 7 MPH (6 knots; 3.1 m/s)
Visibility:10 or more sm (16+ km)
Ceiling:3500 feet AGL
Clouds: overcast cloud deck at 3500 feet AGL
QC Flag:automated observation with no human augmentation
Text:KFNL 200656Z AUTO 04009KT 6SM -SN BR OVC035 M16/M18 A2979 RMK AO2 SLP155 P0000 T11611183 410781161 FZRANO
Temperature:-16.1°C ( 3°F)
Dewpoint:-18.3°C ( -1°F) [RH = 83%]
Pressure (altimeter):29.79 inches Hg (1008.9 mb) [Sea level pressure: 1015.5 mb]
Winds:from the NE (40 degrees) at 10 MPH (9 knots; 4.6 m/s)
Visibility: 6 sm ( 10 km)
Ceiling:3500 feet AGL
Clouds: overcast cloud deck at 3500 feet AGL
Weather:-SN BR (light snow, mist)
QC Flag:automated observation with no human augmentation
Text:KFNL 200613Z AUTO 06008KT 4SM -SN BR SCT025 BKN042 OVC049 M16/M18 A2977 RMK AO2 P0000 FZRANO
Temperature:-16.0°C ( 3°F)
Dewpoint:-18.0°C ( -0°F) [RH = 85%]
Pressure (altimeter):29.77 inches Hg (1008.2 mb)
Winds:from the ENE (60 degrees) at 9 MPH (8 knots; 4.1 m/s)
Visibility: 4 sm ( 6 km)
Ceiling:4200 feet AGL
Clouds: scattered clouds at 2500 feet AGL, broken clouds at 4200 feet AGL, overcast cloud deck at 4900 feet AGL
Weather:-SN BR (light snow, mist)
QC Flag:automated observation with no human augmentation
Text:KFNL 200606Z AUTO 06006KT 4SM -SN BR BKN025 OVC046 M16/M18 A2978 RMK AO2 P0000 FZRANO
Temperature:-16.0°C ( 3°F)
Dewpoint:-18.0°C ( -0°F) [RH = 85%]
Pressure (altimeter):29.78 inches Hg (1008.5 mb)
Winds:from the ENE (60 degrees) at 7 MPH (6 knots; 3.1 m/s)
Visibility: 4 sm ( 6 km)
Ceiling:2500 feet AGL
Clouds: broken clouds at 2500 feet AGL, overcast cloud deck at 4600 feet AGL
Weather:-SN BR (light snow, mist)
QC Flag:automated observation with no human augmentation
Text:KFNL 200556Z AUTO 05006KT 2 1/2SM -SN BR BKN025 OVC032 M16/M18 A2976 RMK AO2 SLP148 P0000 60005 T11611178 11122 21161 51007 FZRANO
Temperature:-16.1°C ( 3°F)
Dewpoint:-17.8°C ( -0°F) [RH = 87%]
Pressure (altimeter):29.76 inches Hg (1007.9 mb) [Sea level pressure: 1014.8 mb]
Winds:from the NE (50 degrees) at 7 MPH (6 knots; 3.1 m/s)
Visibility: 2.50 sm ( 4.02 km)
Ceiling:2500 feet AGL
Clouds: broken clouds at 2500 feet AGL, overcast cloud deck at 3200 feet AGL
Weather:-SN BR (light snow, mist)
QC Flag:automated observation with no human augmentation
Text:KFNL 200543Z AUTO 04006KT 3SM -SN BR BKN025 BKN030 OVC050 M16/M18 A2977 RMK AO2 P0000 FZRANO
Temperature:-16.0°C ( 3°F)
Dewpoint:-18.0°C ( -0°F) [RH = 85%]
Pressure (altimeter):29.77 inches Hg (1008.2 mb)
Winds:from the NE (40 degrees) at 7 MPH (6 knots; 3.1 m/s)
Visibility: 3 sm ( 5 km)
Ceiling:2500 feet AGL
Clouds: broken clouds at 2500 feet AGL, broken clouds at 3000 feet AGL, overcast cloud deck at 5000 feet AGL
Weather:-SN BR (light snow, mist)
QC Flag:automated observation with no human augmentation
Text:KFNL 200515Z AUTO 05009KT 3SM -SN BR SCT025 BKN035 OVC060 M16/M18 A2975 RMK AO2 P0000 FZRANO
Temperature:-16.0°C ( 3°F)
Dewpoint:-18.0°C ( -0°F) [RH = 85%]
Pressure (altimeter):29.75 inches Hg (1007.5 mb)
Winds:from the NE (50 degrees) at 10 MPH (9 knots; 4.6 m/s)
Visibility: 3 sm ( 5 km)
Ceiling:3500 feet AGL
Clouds: scattered clouds at 2500 feet AGL, broken clouds at 3500 feet AGL, overcast cloud deck at 6000 feet AGL
Weather:-SN BR (light snow, mist)
QC Flag:automated observation with no human augmentation
Text:KFNL 200506Z AUTO 06005KT 2SM -SN BR BKN025 BKN029 OVC037 M16/M18 A2979 RMK AO2 VIS 3/4V4 P0000 FZRANO
Temperature:-16.0°C ( 3°F)
Dewpoint:-18.0°C ( -0°F) [RH = 85%]
Pressure (altimeter):29.79 inches Hg (1008.9 mb)
Winds:from the ENE (60 degrees) at 6 MPH (5 knots; 2.6 m/s)
Visibility: 2.00 sm ( 3.22 km)
Ceiling:2500 feet AGL
Clouds: broken clouds at 2500 feet AGL, broken clouds at 2900 feet AGL, overcast cloud deck at 3700 feet AGL
Weather:-SN BR (light snow, mist)
QC Flag:automated observation with no human augmentation
Text:KFNL 200456Z AUTO 06008KT 3SM -SN BR FEW021 BKN027 OVC035 M16/M18 A2975 RMK AO2 SLP146 P0000 T11611178 FZRANO
Temperature:-16.1°C ( 3°F)
Dewpoint:-17.8°C ( -0°F) [RH = 87%]
Pressure (altimeter):29.75 inches Hg (1007.5 mb) [Sea level pressure: 1014.6 mb]
Winds:from the ENE (60 degrees) at 9 MPH (8 knots; 4.1 m/s)
Visibility: 3 sm ( 5 km)
Ceiling:2700 feet AGL
Clouds: few clouds at 2100 feet AGL, broken clouds at 2700 feet AGL, overcast cloud deck at 3500 feet AGL
Weather:-SN BR (light snow, mist)
QC Flag:automated observation with no human augmentation
Text:KFNL 200444Z AUTO 05008KT 2 1/2SM -SN BR FEW016 SCT021 OVC027 M16/M18 A2977 RMK AO2 VIS 1 1/4V4 P0000 FZRANO
Temperature:-16.0°C ( 3°F)
Dewpoint:-18.0°C ( -0°F) [RH = 85%]
Pressure (altimeter):29.77 inches Hg (1008.2 mb)
Winds:from the NE (50 degrees) at 9 MPH (8 knots; 4.1 m/s)
Visibility: 2.50 sm ( 4.02 km)
Ceiling:2700 feet AGL
Clouds: few clouds at 1600 feet AGL, scattered clouds at 2100 feet AGL, overcast cloud deck at 2700 feet AGL
Weather:-SN BR (light snow, mist)
QC Flag:automated observation with no human augmentation
Text:KFNL 200429Z AUTO 03012G17KT 1 3/4SM -SN BR SCT016 OVC022 M16/M18 A2970 RMK AO2 P0000 FZRANO
Temperature:-16.0°C ( 3°F)
Dewpoint:-18.0°C ( -0°F) [RH = 85%]
Pressure (altimeter):29.70 inches Hg (1005.8 mb)
Winds:from the NNE (30 degrees) at 14 MPH (12 knots; 6.2 m/s) gusting to 20 MPH (17 knots; 8.7 m/s)
Visibility: 1.75 sm ( 2.82 km)
Ceiling:2200 feet AGL
Clouds: scattered clouds at 1600 feet AGL, overcast cloud deck at 2200 feet AGL
Weather:-SN BR (light snow, mist)
QC Flag:automated observation with no human augmentation
Text:KFNL 200356Z AUTO 1 1/4SM -SN BR BKN012 OVC019 M16/M17 A2975 RMK AO2 SLP142 P0000 T11561172 FZRANO $
Temperature:-15.6°C ( 4°F)
Dewpoint:-17.2°C ( 1°F) [RH = 87%]
Pressure (altimeter):29.75 inches Hg (1007.5 mb) [Sea level pressure: 1014.2 mb]
Visibility: 1.25 sm ( 2.01 km)
Ceiling:1200 feet AGL
Clouds: broken clouds at 1200 feet AGL, overcast cloud deck at 1900 feet AGL
Weather:-SN BR (light snow, mist)
QC Flag:automated observation with no human augmentation; SOME DATA ABOVE MAY BE INACCURATE!!!"$" is an indication the sensor requires maintenance.
Text:KFNL 200352Z AUTO 1 1/2SM -SN BR BKN012 OVC019 M16/M17 A2974 RMK AO2 P0000 FZRANO $
Temperature:-16.0°C ( 3°F)
Dewpoint:-17.0°C ( 1°F) [RH = 92%]
Pressure (altimeter):29.74 inches Hg (1007.2 mb)
Visibility: 1.50 sm ( 2.41 km)
Ceiling:1200 feet AGL
Clouds: broken clouds at 1200 feet AGL, overcast cloud deck at 1900 feet AGL
Weather:-SN BR (light snow, mist)
QC Flag:automated observation with no human augmentation; SOME DATA ABOVE MAY BE INACCURATE!!!"$" is an indication the sensor requires maintenance.
Text:KFNL 200328Z AUTO 1 3/4SM -SN BR SCT007 OVC015 M14/M17 A2975 RMK AO2 P0000 FZRANO $
Temperature:-14.0°C ( 7°F)
Dewpoint:-17.0°C ( 1°F) [RH = 78%]
Pressure (altimeter):29.75 inches Hg (1007.5 mb)
Visibility: 1.75 sm ( 2.82 km)
Ceiling:1500 feet AGL
Clouds: scattered clouds at 700 feet AGL, overcast cloud deck at 1500 feet AGL
Weather:-SN BR (light snow, mist)
QC Flag:automated observation with no human augmentation; SOME DATA ABOVE MAY BE INACCURATE!!!"$" is an indication the sensor requires maintenance.
Text:KFNL 200316Z AUTO 1SM -SN BR OVC007 M14/M16 A2973 RMK AO2 P0000 FZRANO $
Temperature:-14.0°C ( 7°F)
Dewpoint:-16.0°C ( 3°F) [RH = 85%]
Pressure (altimeter):29.73 inches Hg (1006.9 mb)
Visibility: 1.00 sm ( 1.61 km)
Ceiling:700 feet AGL
Clouds: overcast cloud deck at 700 feet AGL
Weather:-SN BR (light snow, mist)
QC Flag:automated observation with no human augmentation; SOME DATA ABOVE MAY BE INACCURATE!!!"$" is an indication the sensor requires maintenance.
Text:KFNL 200304Z AUTO 1/2SM SN FZFG OVC007 M14/M16 A2972 RMK AO2 P0000 FZRANO $
Temperature:-14.0°C ( 7°F)
Dewpoint:-16.0°C ( 3°F) [RH = 85%]
Pressure (altimeter):29.72 inches Hg (1006.5 mb)
Visibility: 0.50 sm ( 0.80 km)
Ceiling:700 feet AGL
Clouds: overcast cloud deck at 700 feet AGL
Weather:SN FZFG (moderate snow, freezing fog)
QC Flag:automated observation with no human augmentation; SOME DATA ABOVE MAY BE INACCURATE!!!"$" is an indication the sensor requires maintenance.
Text:KFNL 200256Z AUTO 3/4SM -SN BR OVC007 M14/M16 A2972 RMK AO2 PRESRR SLP130 P0001 60005 T11391156 53020 FZRANO $
Temperature:-13.9°C ( 7°F)
Dewpoint:-15.6°C ( 4°F) [RH = 87%]
Pressure (altimeter):29.72 inches Hg (1006.5 mb) [Sea level pressure: 1013.0 mb]
Visibility: 0.75 sm ( 1.21 km)
Ceiling:700 feet AGL
Clouds: overcast cloud deck at 700 feet AGL
Weather:-SN BR (light snow, mist)
QC Flag:automated observation with no human augmentation; SOME DATA ABOVE MAY BE INACCURATE!!!"$" is an indication the sensor requires maintenance.
Text:KFNL 200241Z AUTO 3/4SM -SN BR OVC007 M13/M15 A2968 RMK AO2 CIG 005V009 P0001 FZRANO $
Temperature:-13.0°C ( 9°F)
Dewpoint:-15.0°C ( 5°F) [RH = 85%]
Pressure (altimeter):29.68 inches Hg (1005.2 mb)
Visibility: 0.75 sm ( 1.21 km)
Ceiling:700 feet AGL
Clouds: overcast cloud deck at 700 feet AGL
Weather:-SN BR (light snow, mist)
QC Flag:automated observation with no human augmentation; SOME DATA ABOVE MAY BE INACCURATE!!!"$" is an indication the sensor requires maintenance.
Text:KFNL 200227Z AUTO 3/4SM -SN BR OVC005 M13/M15 A2966 RMK AO2 CIG 004V007 PRESFR P0001 FZRANO $
Temperature:-13.0°C ( 9°F)
Dewpoint:-15.0°C ( 5°F) [RH = 85%]
Pressure (altimeter):29.66 inches Hg (1004.5 mb)
Visibility: 0.75 sm ( 1.21 km)
Ceiling:500 feet AGL
Clouds: overcast cloud deck at 500 feet AGL
Weather:-SN BR (light snow, mist)
QC Flag:automated observation with no human augmentation; SOME DATA ABOVE MAY BE INACCURATE!!!"$" is an indication the sensor requires maintenance.
Text:KFNL 200204Z AUTO 08007KT 1/2SM SN FZFG OVC005 M13/M14 A2969 RMK AO2 P0000 FZRANO
Temperature:-13.0°C ( 9°F)
Dewpoint:-14.0°C ( 7°F) [RH = 92%]
Pressure (altimeter):29.69 inches Hg (1005.5 mb)
Winds:from the E (80 degrees) at 8 MPH (7 knots; 3.6 m/s)
Visibility: 0.50 sm ( 0.80 km)
Ceiling:500 feet AGL
Clouds: overcast cloud deck at 500 feet AGL
Weather:SN FZFG (moderate snow, freezing fog)
QC Flag:automated observation with no human augmentation
Text:KFNL 200156Z AUTO 1/4SM +SN FZFG OVC005 M13/M14 A2968 RMK AO2 CIG 003V007 SLP113 P0003 T11281144 FZRANO $
Temperature:-12.8°C ( 9°F)
Dewpoint:-14.4°C ( 6°F) [RH = 88%]
Pressure (altimeter):29.68 inches Hg (1005.2 mb) [Sea level pressure: 1011.3 mb]
Visibility: 0.25 sm ( 0.40 km)
Ceiling:500 feet AGL
Clouds: overcast cloud deck at 500 feet AGL
Weather:+SN FZFG (heavy snow, freezing fog)
QC Flag:automated observation with no human augmentation; SOME DATA ABOVE MAY BE INACCURATE!!!"$" is an indication the sensor requires maintenance.
Text:KFNL 200151Z AUTO 09008KT 1/4SM +SN FZFG OVC005 M13/M14 A2968 RMK AO2 CIG 003V007 P0003 FZRANO
Temperature:-13.0°C ( 9°F)
Dewpoint:-14.0°C ( 7°F) [RH = 92%]
Pressure (altimeter):29.68 inches Hg (1005.2 mb)
Winds:from the E (90 degrees) at 9 MPH (8 knots; 4.1 m/s)
Visibility: 0.25 sm ( 0.40 km)
Ceiling:500 feet AGL
Clouds: overcast cloud deck at 500 feet AGL
Weather:+SN FZFG (heavy snow, freezing fog)
QC Flag:automated observation with no human augmentation
Text:KFNL 200139Z AUTO 08008KT 1/2SM SN FZFG BKN005 OVC013 M13/M14 A2968 RMK AO2 CIG 004V010 P0002 FZRANO
Temperature:-13.0°C ( 9°F)
Dewpoint:-14.0°C ( 7°F) [RH = 92%]
Pressure (altimeter):29.68 inches Hg (1005.2 mb)
Winds:from the E (80 degrees) at 9 MPH (8 knots; 4.1 m/s)
Visibility: 0.50 sm ( 0.80 km)
Ceiling:500 feet AGL
Clouds: broken clouds at 500 feet AGL, overcast cloud deck at 1300 feet AGL
Weather:SN FZFG (moderate snow, freezing fog)
QC Flag:automated observation with no human augmentation
Text:KFNL 200129Z AUTO 07008KT 3/4SM -SN BR BKN007 OVC013 M13/M14 A2967 RMK AO2 CIG 004V010 P0002 FZRANO
Temperature:-13.0°C ( 9°F)
Dewpoint:-14.0°C ( 7°F) [RH = 92%]
Pressure (altimeter):29.67 inches Hg (1004.8 mb)
Winds:from the ENE (70 degrees) at 9 MPH (8 knots; 4.1 m/s)
Visibility: 0.75 sm ( 1.21 km)
Ceiling:700 feet AGL
Clouds: broken clouds at 700 feet AGL, overcast cloud deck at 1300 feet AGL
Weather:-SN BR (light snow, mist)
QC Flag:automated observation with no human augmentation
Text:KFNL 200125Z AUTO 07007KT 1 1/4SM -SN BR SCT005 BKN009 OVC013 M13/M14 A2966 RMK AO2 P0002 FZRANO
Temperature:-13.0°C ( 9°F)
Dewpoint:-14.0°C ( 7°F) [RH = 92%]
Pressure (altimeter):29.66 inches Hg (1004.5 mb)
Winds:from the ENE (70 degrees) at 8 MPH (7 knots; 3.6 m/s)
Visibility: 1.25 sm ( 2.01 km)
Ceiling:900 feet AGL
Clouds: scattered clouds at 500 feet AGL, broken clouds at 900 feet AGL, overcast cloud deck at 1300 feet AGL
Weather:-SN BR (light snow, mist)
QC Flag:automated observation with no human augmentation
Text:KFNL 200119Z AUTO 07008KT 2SM -SN BR SCT005 OVC013 M13/M14 A2966 RMK AO2 P0001 FZRANO
Temperature:-13.0°C ( 9°F)
Dewpoint:-14.0°C ( 7°F) [RH = 92%]
Pressure (altimeter):29.66 inches Hg (1004.5 mb)
Winds:from the ENE (70 degrees) at 9 MPH (8 knots; 4.1 m/s)
Visibility: 2.00 sm ( 3.22 km)
Ceiling:1300 feet AGL
Clouds: scattered clouds at 500 feet AGL, overcast cloud deck at 1300 feet AGL
Weather:-SN BR (light snow, mist)
QC Flag:automated observation with no human augmentation
Text:KFNL 200117Z AUTO 08007KT 1 3/4SM -SN BR BKN005 OVC013 M13/M14 A2966 RMK AO2 CIG 004V010 P0001 FZRANO
Temperature:-13.0°C ( 9°F)
Dewpoint:-14.0°C ( 7°F) [RH = 92%]
Pressure (altimeter):29.66 inches Hg (1004.5 mb)
Winds:from the E (80 degrees) at 8 MPH (7 knots; 3.6 m/s)
Visibility: 1.75 sm ( 2.82 km)
Ceiling:500 feet AGL
Clouds: broken clouds at 500 feet AGL, overcast cloud deck at 1300 feet AGL
Weather:-SN BR (light snow, mist)
QC Flag:automated observation with no human augmentation
Text:KFNL 200110Z AUTO 09009KT 1SM -SN BR BKN005 OVC011 M13/M14 A2966 RMK AO2 CIG 004V008 P0000 FZRANO
Temperature:-13.0°C ( 9°F)
Dewpoint:-14.0°C ( 7°F) [RH = 92%]
Pressure (altimeter):29.66 inches Hg (1004.5 mb)
Winds:from the E (90 degrees) at 10 MPH (9 knots; 4.6 m/s)
Visibility: 1.00 sm ( 1.61 km)
Ceiling:500 feet AGL
Clouds: broken clouds at 500 feet AGL, overcast cloud deck at 1100 feet AGL
Weather:-SN BR (light snow, mist)
QC Flag:automated observation with no human augmentation
Text:KFNL 200106Z AUTO 09009KT 1/2SM SN FZFG BKN005 OVC009 M13/M14 A2965 RMK AO2 CIG 004V007 P0000 FZRANO
Temperature:-13.0°C ( 9°F)
Dewpoint:-14.0°C ( 7°F) [RH = 92%]
Pressure (altimeter):29.65 inches Hg (1004.1 mb)
Winds:from the E (90 degrees) at 10 MPH (9 knots; 4.6 m/s)
Visibility: 0.50 sm ( 0.80 km)
Ceiling:500 feet AGL
Clouds: broken clouds at 500 feet AGL, overcast cloud deck at 900 feet AGL
Weather:SN FZFG (moderate snow, freezing fog)
QC Flag:automated observation with no human augmentation
Text:KFNL 200056Z AUTO 09010KT 1/2SM SN FZFG OVC007 M12/M14 A2965 RMK AO2 CIG 005V009 SLP101 P0001 T11221144 FZRANO
Temperature:-12.2°C ( 10°F)
Dewpoint:-14.4°C ( 6°F) [RH = 84%]
Pressure (altimeter):29.65 inches Hg (1004.1 mb) [Sea level pressure: 1010.1 mb]
Winds:from the E (90 degrees) at 12 MPH (10 knots; 5.1 m/s)
Visibility: 0.50 sm ( 0.80 km)
Ceiling:700 feet AGL
Clouds: overcast cloud deck at 700 feet AGL
Weather:SN FZFG (moderate snow, freezing fog)
QC Flag:automated observation with no human augmentation
Text:KFNL 200039Z AUTO 07010KT 1/4SM +SN FZFG BKN007 OVC014 M12/M14 A2964 RMK AO2 CIG 005V010 P0000 FZRANO
Temperature:-12.0°C ( 10°F)
Dewpoint:-14.0°C ( 7°F) [RH = 85%]
Pressure (altimeter):29.64 inches Hg (1003.8 mb)
Winds:from the ENE (70 degrees) at 12 MPH (10 knots; 5.1 m/s)
Visibility: 0.25 sm ( 0.40 km)
Ceiling:700 feet AGL
Clouds: broken clouds at 700 feet AGL, overcast cloud deck at 1400 feet AGL
Weather:+SN FZFG (heavy snow, freezing fog)
QC Flag:automated observation with no human augmentation
Text:KFNL 200029Z AUTO 07012KT 1/2SM SN FZFG BKN009 BKN014 OVC035 M12/M14 A2964 RMK AO2 CIG 007V012 P0000 FZRANO
Temperature:-12.0°C ( 10°F)
Dewpoint:-14.0°C ( 7°F) [RH = 85%]
Pressure (altimeter):29.64 inches Hg (1003.8 mb)
Winds:from the ENE (70 degrees) at 14 MPH (12 knots; 6.2 m/s)
Visibility: 0.50 sm ( 0.80 km)
Ceiling:900 feet AGL
Clouds: broken clouds at 900 feet AGL, broken clouds at 1400 feet AGL, overcast cloud deck at 3500 feet AGL
Weather:SN FZFG (moderate snow, freezing fog)
QC Flag:automated observation with no human augmentation
Text:KFNL 200026Z AUTO 07011KT 3/4SM -SN BR FEW009 BKN012 OVC035 M12/M14 A2963 RMK AO2 P0000 FZRANO
Temperature:-12.0°C ( 10°F)
Dewpoint:-14.0°C ( 7°F) [RH = 85%]
Pressure (altimeter):29.63 inches Hg (1003.5 mb)
Winds:from the ENE (70 degrees) at 13 MPH (11 knots; 5.7 m/s)
Visibility: 0.75 sm ( 1.21 km)
Ceiling:1200 feet AGL
Clouds: few clouds at 900 feet AGL, broken clouds at 1200 feet AGL, overcast cloud deck at 3500 feet AGL
Weather:-SN BR (light snow, mist)
QC Flag:automated observation with no human augmentation
Text:KFNL 200019Z AUTO 06009KT 3/4SM -SN BR FEW008 BKN022 OVC035 M12/M14 A2964 RMK AO2 P0000 FZRANO
Temperature:-12.0°C ( 10°F)
Dewpoint:-14.0°C ( 7°F) [RH = 85%]
Pressure (altimeter):29.64 inches Hg (1003.8 mb)
Winds:from the ENE (60 degrees) at 10 MPH (9 knots; 4.6 m/s)
Visibility: 0.75 sm ( 1.21 km)
Ceiling:2200 feet AGL
Clouds: few clouds at 800 feet AGL, broken clouds at 2200 feet AGL, overcast cloud deck at 3500 feet AGL
Weather:-SN BR (light snow, mist)
QC Flag:automated observation with no human augmentation
Text:KFNL 200009Z AUTO 06012KT 1 1/4SM -SN FEW008 BKN024 OVC035 M12/M14 A2963 RMK AO2 P0000 FZRANO
Temperature:-12.0°C ( 10°F)
Dewpoint:-14.0°C ( 7°F) [RH = 85%]
Pressure (altimeter):29.63 inches Hg (1003.5 mb)
Winds:from the ENE (60 degrees) at 14 MPH (12 knots; 6.2 m/s)
Visibility: 1.25 sm ( 2.01 km)
Ceiling:2400 feet AGL
Clouds: few clouds at 800 feet AGL, broken clouds at 2400 feet AGL, overcast cloud deck at 3500 feet AGL
Weather:-SN (light snow)
QC Flag:automated observation with no human augmentation
Text:KFNL 192356Z AUTO 07009KT 1 1/4SM -SN SCT008 OVC013 M11/M14 A2964 RMK AO2 SLP094 P0002 60002 T11111139 11100 21111 53008 FZRANO
Temperature:-11.1°C ( 12°F)
Dewpoint:-13.9°C ( 7°F) [RH = 80%]
Pressure (altimeter):29.64 inches Hg (1003.8 mb) [Sea level pressure: 1009.4 mb]
Winds:from the ENE (70 degrees) at 10 MPH (9 knots; 4.6 m/s)
Visibility: 1.25 sm ( 2.01 km)
Ceiling:1300 feet AGL
Clouds: scattered clouds at 800 feet AGL, overcast cloud deck at 1300 feet AGL
Weather:-SN (light snow)
QC Flag:automated observation with no human augmentation
Text:KFNL 192351Z AUTO 07008KT 1SM -SN BR BKN006 OVC013 M11/M13 A2963 RMK AO2 CIG 004V011 P0002 FZRANO
Temperature:-11.0°C ( 12°F)
Dewpoint:-13.0°C ( 9°F) [RH = 85%]
Pressure (altimeter):29.63 inches Hg (1003.5 mb)
Winds:from the ENE (70 degrees) at 9 MPH (8 knots; 4.1 m/s)
Visibility: 1.00 sm ( 1.61 km)
Ceiling:600 feet AGL
Clouds: broken clouds at 600 feet AGL, overcast cloud deck at 1300 feet AGL
Weather:-SN BR (light snow, mist)
QC Flag:automated observation with no human augmentation
Text:KFNL 192342Z AUTO 10009KT 3/4SM -SN BKN006 OVC013 M11/M14 A2962 RMK AO2 CIG 004V010 P0001 FZRANO
Temperature:-11.0°C ( 12°F)
Dewpoint:-14.0°C ( 7°F) [RH = 78%]
Pressure (altimeter):29.62 inches Hg (1003.1 mb)
Winds:from the E (100 degrees) at 10 MPH (9 knots; 4.6 m/s)
Visibility: 0.75 sm ( 1.21 km)
Ceiling:600 feet AGL
Clouds: broken clouds at 600 feet AGL, overcast cloud deck at 1300 feet AGL
Weather:-SN (light snow)
QC Flag:automated observation with no human augmentation
Text:KFNL 192305Z AUTO 09011KT 1/4SM SN FZFG BKN008 BKN012 OVC024 M11/M13 A2960 RMK AO2 CIG 004V010 P0000 FZRANO
Temperature:-11.0°C ( 12°F)
Dewpoint:-13.0°C ( 9°F) [RH = 85%]
Pressure (altimeter):29.60 inches Hg (1002.5 mb)
Winds:from the E (90 degrees) at 13 MPH (11 knots; 5.7 m/s)
Visibility: 0.25 sm ( 0.40 km)
Ceiling:800 feet AGL
Clouds: broken clouds at 800 feet AGL, broken clouds at 1200 feet AGL, overcast cloud deck at 2400 feet AGL
Weather:SN FZFG (moderate snow, freezing fog)
QC Flag:automated observation with no human augmentation
Text:KFNL 192300Z AUTO 08011KT 1/2SM SN FZFG FEW008 BKN012 OVC024 M11/M13 A2959 RMK AO2 P0000 FZRANO
Temperature:-11.0°C ( 12°F)
Dewpoint:-13.0°C ( 9°F) [RH = 85%]
Pressure (altimeter):29.59 inches Hg (1002.1 mb)
Winds:from the E (80 degrees) at 13 MPH (11 knots; 5.7 m/s)
Visibility: 0.50 sm ( 0.80 km)
Ceiling:1200 feet AGL
Clouds: few clouds at 800 feet AGL, broken clouds at 1200 feet AGL, overcast cloud deck at 2400 feet AGL
Weather:SN FZFG (moderate snow, freezing fog)
QC Flag:automated observation with no human augmentation
Text:KFNL 192256Z AUTO 09012KT 3/4SM -SN BR FEW010 BKN016 OVC024 M11/M13 A2960 RMK AO2 SLP081 P0000 T11111133 FZRANO
Temperature:-11.1°C ( 12°F)
Dewpoint:-13.3°C ( 8°F) [RH = 84%]
Pressure (altimeter):29.60 inches Hg (1002.5 mb) [Sea level pressure: 1008.1 mb]
Winds:from the E (90 degrees) at 14 MPH (12 knots; 6.2 m/s)
Visibility: 0.75 sm ( 1.21 km)
Ceiling:1600 feet AGL
Clouds: few clouds at 1000 feet AGL, broken clouds at 1600 feet AGL, overcast cloud deck at 2400 feet AGL
Weather:-SN BR (light snow, mist)
QC Flag:automated observation with no human augmentation
Text:KFNL 192254Z AUTO 09012KT 3/4SM -SN BR SCT014 BKN018 OVC024 M11/M13 A2960 RMK AO2 P0000 FZRANO
Temperature:-11.0°C ( 12°F)
Dewpoint:-13.0°C ( 9°F) [RH = 85%]
Pressure (altimeter):29.60 inches Hg (1002.5 mb)
Winds:from the E (90 degrees) at 14 MPH (12 knots; 6.2 m/s)
Visibility: 0.75 sm ( 1.21 km)
Ceiling:1800 feet AGL
Clouds: scattered clouds at 1400 feet AGL, broken clouds at 1800 feet AGL, overcast cloud deck at 2400 feet AGL
Weather:-SN BR (light snow, mist)
QC Flag:automated observation with no human augmentation
Text:KFNL 192252Z AUTO 09011KT 1SM -SN BR BKN016 OVC024 M11/M13 A2961 RMK AO2 P0000 FZRANO
Temperature:-11.0°C ( 12°F)
Dewpoint:-13.0°C ( 9°F) [RH = 85%]
Pressure (altimeter):29.61 inches Hg (1002.8 mb)
Winds:from the E (90 degrees) at 13 MPH (11 knots; 5.7 m/s)
Visibility: 1.00 sm ( 1.61 km)
Ceiling:1600 feet AGL
Clouds: broken clouds at 1600 feet AGL, overcast cloud deck at 2400 feet AGL
Weather:-SN BR (light snow, mist)
QC Flag:automated observation with no human augmentation
Text:KFNL 192227Z AUTO 10008KT 1 3/4SM -SN BKN017 OVC022 M11/M13 A2962 RMK AO2 VIS 1 1/4V3 CIG 012V021 P0000 FZRANO
Temperature:-11.0°C ( 12°F)
Dewpoint:-13.0°C ( 9°F) [RH = 85%]
Pressure (altimeter):29.62 inches Hg (1003.1 mb)
Winds:from the E (100 degrees) at 9 MPH (8 knots; 4.1 m/s)
Visibility: 1.75 sm ( 2.82 km)
Ceiling:1700 feet AGL
Clouds: broken clouds at 1700 feet AGL, overcast cloud deck at 2200 feet AGL
Weather:-SN (light snow)
QC Flag:automated observation with no human augmentation
Text:KFNL 192220Z AUTO 09008KT 1 1/4SM -SN BKN014 OVC019 M11/M13 A2961 RMK AO2 P0000 FZRANO
Temperature:-11.0°C ( 12°F)
Dewpoint:-13.0°C ( 9°F) [RH = 85%]
Pressure (altimeter):29.61 inches Hg (1002.8 mb)
Winds:from the E (90 degrees) at 9 MPH (8 knots; 4.1 m/s)
Visibility: 1.25 sm ( 2.01 km)
Ceiling:1400 feet AGL
Clouds: broken clouds at 1400 feet AGL, overcast cloud deck at 1900 feet AGL
Weather:-SN (light snow)
QC Flag:automated observation with no human augmentation
Text:KFNL 192208Z AUTO 09007KT 1 3/4SM -SN OVC016 M11/M13 A2960 RMK AO2 P0000 FZRANO TSNO
Temperature:-11.0°C ( 12°F)
Dewpoint:-13.0°C ( 9°F) [RH = 85%]
Pressure (altimeter):29.60 inches Hg (1002.5 mb)
Winds:from the E (90 degrees) at 8 MPH (7 knots; 3.6 m/s)
Visibility: 1.75 sm ( 2.82 km)
Ceiling:1600 feet AGL
Clouds: overcast cloud deck at 1600 feet AGL
Weather:-SN (light snow)
QC Flag:automated observation with no human augmentation
Text:KFNL 192204Z AUTO 11006KT 2SM -SN OVC014 M11/M13 A2960 RMK AO2 P0000 FZRANO
Temperature:-11.0°C ( 12°F)
Dewpoint:-13.0°C ( 9°F) [RH = 85%]
Pressure (altimeter):29.60 inches Hg (1002.5 mb)
Winds:from the ESE (110 degrees) at 7 MPH (6 knots; 3.1 m/s)
Visibility: 2.00 sm ( 3.22 km)
Ceiling:1400 feet AGL
Clouds: overcast cloud deck at 1400 feet AGL
Weather:-SN (light snow)
QC Flag:automated observation with no human augmentation
Text:KFNL 192156Z AUTO 12007KT 3SM -SN OVC014 M11/M13 A2961 RMK AO2 SLP078 P0000 T11061133 FZRANO
Temperature:-10.6°C ( 13°F)
Dewpoint:-13.3°C ( 8°F) [RH = 80%]
Pressure (altimeter):29.61 inches Hg (1002.8 mb) [Sea level pressure: 1007.8 mb]
Winds:from the ESE (120 degrees) at 8 MPH (7 knots; 3.6 m/s)
Visibility: 3 sm ( 5 km)
Ceiling:1400 feet AGL
Clouds: overcast cloud deck at 1400 feet AGL
Weather:-SN (light snow)
QC Flag:automated observation with no human augmentation
Text:KFNL 192146Z AUTO 11009KT 6SM -SN OVC014 M10/M13 A2960 RMK AO2 P0000 FZRANO
Temperature:-10.0°C ( 14°F)
Dewpoint:-13.0°C ( 9°F) [RH = 79%]
Pressure (altimeter):29.60 inches Hg (1002.5 mb)
Winds:from the ESE (110 degrees) at 10 MPH (9 knots; 4.6 m/s)
Visibility: 6 sm ( 10 km)
Ceiling:1400 feet AGL
Clouds: overcast cloud deck at 1400 feet AGL
Weather:-SN (light snow)
QC Flag:automated observation with no human augmentation
Text:KFNL 192103Z AUTO 11010KT 5SM -SN OVC016 M10/M13 A2959 RMK AO2 P0000 FZRANO
Temperature:-10.0°C ( 14°F)
Dewpoint:-13.0°C ( 9°F) [RH = 79%]
Pressure (altimeter):29.59 inches Hg (1002.1 mb)
Winds:from the ESE (110 degrees) at 12 MPH (10 knots; 5.1 m/s)
Visibility: 5 sm ( 8 km)
Ceiling:1600 feet AGL
Clouds: overcast cloud deck at 1600 feet AGL
Weather:-SN (light snow)
QC Flag:automated observation with no human augmentation
Text:KFNL 192056Z AUTO 12009KT 2 1/2SM -SN OVC016 M10/M13 A2960 RMK AO2 VIS 1V5 SLP075 P0000 60000 T11001133 56021 FZRANO
Temperature:-10.0°C ( 14°F)
Dewpoint:-13.3°C ( 8°F) [RH = 77%]
Pressure (altimeter):29.60 inches Hg (1002.5 mb) [Sea level pressure: 1007.5 mb]
Winds:from the ESE (120 degrees) at 10 MPH (9 knots; 4.6 m/s)
Visibility: 2.50 sm ( 4.02 km)
Ceiling:1600 feet AGL
Clouds: overcast cloud deck at 1600 feet AGL
Weather:-SN (light snow)
QC Flag:automated observation with no human augmentation
Text:KFNL 192051Z AUTO 12009KT 2SM -SN OVC016 M10/M13 A2962 RMK AO2 VIS 1V5 P0000 FZRANO
Temperature:-10.0°C ( 14°F)
Dewpoint:-13.0°C ( 9°F) [RH = 79%]
Pressure (altimeter):29.62 inches Hg (1003.1 mb)
Winds:from the ESE (120 degrees) at 10 MPH (9 knots; 4.6 m/s)
Visibility: 2.00 sm ( 3.22 km)
Ceiling:1600 feet AGL
Clouds: overcast cloud deck at 1600 feet AGL
Weather:-SN (light snow)
QC Flag:automated observation with no human augmentation
Text:KFNL 192023Z AUTO 10008KT 3SM -SN OVC014 M10/M13 A2960 RMK AO2 P0000 FZRANO
Temperature:-10.0°C ( 14°F)
Dewpoint:-13.0°C ( 9°F) [RH = 79%]
Pressure (altimeter):29.60 inches Hg (1002.5 mb)
Winds:from the E (100 degrees) at 9 MPH (8 knots; 4.1 m/s)
Visibility: 3 sm ( 5 km)
Ceiling:1400 feet AGL
Clouds: overcast cloud deck at 1400 feet AGL
Weather:-SN (light snow)
QC Flag:automated observation with no human augmentation
Text:KFNL 192015Z AUTO 11008KT 1 3/4SM -SN OVC014 M10/M13 A2960 RMK AO2 P0000 FZRANO TSNO
Temperature:-10.0°C ( 14°F)
Dewpoint:-13.0°C ( 9°F) [RH = 79%]
Pressure (altimeter):29.60 inches Hg (1002.5 mb)
Winds:from the ESE (110 degrees) at 9 MPH (8 knots; 4.1 m/s)
Visibility: 1.75 sm ( 2.82 km)
Ceiling:1400 feet AGL
Clouds: overcast cloud deck at 1400 feet AGL
Weather:-SN (light snow)
QC Flag:automated observation with no human augmentation
Text:KFNL 191956Z AUTO 14006KT 9SM -SN OVC014 M10/M13 A2962 RMK AO2 SLP081 P0000 T11001133 FZRANO
Temperature:-10.0°C ( 14°F)
Dewpoint:-13.3°C ( 8°F) [RH = 77%]
Pressure (altimeter):29.62 inches Hg (1003.1 mb) [Sea level pressure: 1008.1 mb]
Winds:from the SE (140 degrees) at 7 MPH (6 knots; 3.1 m/s)
Visibility: 9 sm ( 14 km)
Ceiling:1400 feet AGL
Clouds: overcast cloud deck at 1400 feet AGL
Weather:-SN (light snow)
QC Flag:automated observation with no human augmentation
Text:KFNL 191856Z AUTO 12008KT 7SM -SN OVC014 M10/M13 A2965 RMK AO2 SLP087 P0000 T11001133 FZRANO
Temperature:-10.0°C ( 14°F)
Dewpoint:-13.3°C ( 8°F) [RH = 77%]
Pressure (altimeter):29.65 inches Hg (1004.1 mb) [Sea level pressure: 1008.7 mb]
Winds:from the ESE (120 degrees) at 9 MPH (8 knots; 4.1 m/s)
Visibility: 7 sm ( 11 km)
Ceiling:1400 feet AGL
Clouds: overcast cloud deck at 1400 feet AGL
Weather:-SN (light snow)
QC Flag:automated observation with no human augmentation
Text:KFNL 191756Z AUTO 11009KT 5SM -SN OVC012 M11/M13 A2967 RMK AO2 SLP092 P0000 60000 T11061133 11106 21128 58020 FZRANO
Temperature:-10.6°C ( 13°F)
Dewpoint:-13.3°C ( 8°F) [RH = 80%]
Pressure (altimeter):29.67 inches Hg (1004.8 mb) [Sea level pressure: 1009.2 mb]
Winds:from the ESE (110 degrees) at 10 MPH (9 knots; 4.6 m/s)
Visibility: 5 sm ( 8 km)
Ceiling:1200 feet AGL
Clouds: overcast cloud deck at 1200 feet AGL
Weather:-SN (light snow)
QC Flag:automated observation with no human augmentation
Text:KFNL 191719Z AUTO 11007KT 9SM -SN OVC014 M11/M14 A2968 RMK AO2 P0000 FZRANO
Temperature:-11.0°C ( 12°F)
Dewpoint:-14.0°C ( 7°F) [RH = 78%]
Pressure (altimeter):29.68 inches Hg (1005.2 mb)
Winds:from the ESE (110 degrees) at 8 MPH (7 knots; 3.6 m/s)
Visibility: 9 sm ( 14 km)
Ceiling:1400 feet AGL
Clouds: overcast cloud deck at 1400 feet AGL
Weather:-SN (light snow)
QC Flag:automated observation with no human augmentation
Text:KFNL 191656Z AUTO 09006KT 6SM -SN OVC018 M11/M14 A2970 RMK AO2 SLP100 P0000 T11111139 FZRANO
Temperature:-11.1°C ( 12°F)
Dewpoint:-13.9°C ( 7°F) [RH = 80%]
Pressure (altimeter):29.70 inches Hg (1005.8 mb) [Sea level pressure: 1010.0 mb]
Winds:from the E (90 degrees) at 7 MPH (6 knots; 3.1 m/s)
Visibility: 6 sm ( 10 km)
Ceiling:1800 feet AGL
Clouds: overcast cloud deck at 1800 feet AGL
Weather:-SN (light snow)
QC Flag:automated observation with no human augmentation
Text:KFNL 191621Z AUTO 07006KT 5SM -SN OVC016 M12/M14 A2971 RMK AO2 P0000 FZRANO
Temperature:-12.0°C ( 10°F)
Dewpoint:-14.0°C ( 7°F) [RH = 85%]
Pressure (altimeter):29.71 inches Hg (1006.2 mb)
Winds:from the ENE (70 degrees) at 7 MPH (6 knots; 3.1 m/s)
Visibility: 5 sm ( 8 km)
Ceiling:1600 feet AGL
Clouds: overcast cloud deck at 1600 feet AGL
Weather:-SN (light snow)
QC Flag:automated observation with no human augmentation
Text:KFNL 191556Z AUTO 08006KT 6SM -SN OVC014 M12/M14 A2972 RMK AO2 SLP106 P0000 T11171144 FZRANO
Temperature:-11.7°C ( 11°F)
Dewpoint:-14.4°C ( 6°F) [RH = 80%]
Pressure (altimeter):29.72 inches Hg (1006.5 mb) [Sea level pressure: 1010.6 mb]
Winds:from the E (80 degrees) at 7 MPH (6 knots; 3.1 m/s)
Visibility: 6 sm ( 10 km)
Ceiling:1400 feet AGL
Clouds: overcast cloud deck at 1400 feet AGL
Weather:-SN (light snow)
QC Flag:automated observation with no human augmentation
Text:KFNL 191456Z AUTO 06006KT 5SM -SN BR OVC016 M12/M14 A2974 RMK AO2 SLP112 P0000 60000 T11221144 52004 FZRANO
Temperature:-12.2°C ( 10°F)
Dewpoint:-14.4°C ( 6°F) [RH = 84%]
Pressure (altimeter):29.74 inches Hg (1007.2 mb) [Sea level pressure: 1011.2 mb]
Winds:from the ENE (60 degrees) at 7 MPH (6 knots; 3.1 m/s)
Visibility: 5 sm ( 8 km)
Ceiling:1600 feet AGL
Clouds: overcast cloud deck at 1600 feet AGL
Weather:-SN BR (light snow, mist)
QC Flag:automated observation with no human augmentation
Text:KFNL 191419Z AUTO 07005KT 6SM -SN BR BKN014 OVC021 M12/M14 A2974 RMK AO2 P0000 FZRANO
Temperature:-12.0°C ( 10°F)
Dewpoint:-14.0°C ( 7°F) [RH = 85%]
Pressure (altimeter):29.74 inches Hg (1007.2 mb)
Winds:from the ENE (70 degrees) at 6 MPH (5 knots; 2.6 m/s)
Visibility: 6 sm ( 10 km)
Ceiling:1400 feet AGL
Clouds: broken clouds at 1400 feet AGL, overcast cloud deck at 2100 feet AGL
Weather:-SN BR (light snow, mist)
QC Flag:automated observation with no human augmentation
Text:KFNL 191356Z AUTO 08006KT 7SM -SN OVC020 M12/M14 A2974 RMK AO2 SLP100 P0000 T11221144 FZRANO
Temperature:-12.2°C ( 10°F)
Dewpoint:-14.4°C ( 6°F) [RH = 84%]
Pressure (altimeter):29.74 inches Hg (1007.2 mb) [Sea level pressure: 1010.0 mb]
Winds:from the E (80 degrees) at 7 MPH (6 knots; 3.1 m/s)
Visibility: 7 sm ( 11 km)
Ceiling:2000 feet AGL
Clouds: overcast cloud deck at 2000 feet AGL
Weather:-SN (light snow)
QC Flag:automated observation with no human augmentation
Text:KFNL 191343Z AUTO 06006KT 8SM -SN SCT011 OVC020 M12/M14 A2974 RMK AO2 P0000 FZRANO
Temperature:-12.0°C ( 10°F)
Dewpoint:-14.0°C ( 7°F) [RH = 85%]
Pressure (altimeter):29.74 inches Hg (1007.2 mb)
Winds:from the ENE (60 degrees) at 7 MPH (6 knots; 3.1 m/s)
Visibility: 8 sm ( 13 km)
Ceiling:2000 feet AGL
Clouds: scattered clouds at 1100 feet AGL, overcast cloud deck at 2000 feet AGL
Weather:-SN (light snow)
QC Flag:automated observation with no human augmentation
Text:KFNL 191256Z AUTO 07008KT 6SM -SN BR BKN011 OVC023 M12/M14 A2974 RMK AO2 SLP083 P0000 T11171139 FZRANO
Temperature:-11.7°C ( 11°F)
Dewpoint:-13.9°C ( 7°F) [RH = 84%]
Pressure (altimeter):29.74 inches Hg (1007.2 mb) [Sea level pressure: 1008.3 mb]
Winds:from the ENE (70 degrees) at 9 MPH (8 knots; 4.1 m/s)
Visibility: 6 sm ( 10 km)
Ceiling:1100 feet AGL
Clouds: broken clouds at 1100 feet AGL, overcast cloud deck at 2300 feet AGL
Weather:-SN BR (light snow, mist)
QC Flag:automated observation with no human augmentation
Text:KFNL 191156Z AUTO 08011KT 9SM -SN OVC023 M12/M13 A2973 RMK AO2 SLP071 P0000 60000 T11171133 11050 21117 53004 FZRANO
Temperature:-11.7°C ( 11°F)
Dewpoint:-13.3°C ( 8°F) [RH = 88%]
Pressure (altimeter):29.73 inches Hg (1006.9 mb) [Sea level pressure: 1007.1 mb]
Winds:from the E (80 degrees) at 13 MPH (11 knots; 5.7 m/s)
Visibility: 9 sm ( 14 km)
Ceiling:2300 feet AGL
Clouds: overcast cloud deck at 2300 feet AGL
Weather:-SN (light snow)
QC Flag:automated observation with no human augmentation
Text:KFNL 191127Z AUTO 08011KT 5SM -SN BR FEW007 OVC027 M11/M13 A2972 RMK AO2 P0000 FZRANO
Temperature:-11.0°C ( 12°F)
Dewpoint:-13.0°C ( 9°F) [RH = 85%]
Pressure (altimeter):29.72 inches Hg (1006.5 mb)
Winds:from the E (80 degrees) at 13 MPH (11 knots; 5.7 m/s)
Visibility: 5 sm ( 8 km)
Ceiling:2700 feet AGL
Clouds: few clouds at 700 feet AGL, overcast cloud deck at 2700 feet AGL
Weather:-SN BR (light snow, mist)
QC Flag:automated observation with no human augmentation
Text:KFNL 191056Z AUTO 07009KT 3SM -SN BR BKN015 OVC026 M11/M13 A2971 RMK AO2 SLP061 P0000 T11111128 FZRANO
Temperature:-11.1°C ( 12°F)
Dewpoint:-12.8°C ( 9°F) [RH = 87%]
Pressure (altimeter):29.71 inches Hg (1006.2 mb) [Sea level pressure: 1006.1 mb]
Winds:from the ENE (70 degrees) at 10 MPH (9 knots; 4.6 m/s)
Visibility: 3 sm ( 5 km)
Ceiling:1500 feet AGL
Clouds: broken clouds at 1500 feet AGL, overcast cloud deck at 2600 feet AGL
Weather:-SN BR (light snow, mist)
QC Flag:automated observation with no human augmentation
Text:KFNL 191017Z AUTO 08009KT 4SM -SN BR FEW009 OVC024 M11/M12 A2971 RMK AO2 P0000 FZRANO
Temperature:-11.0°C ( 12°F)
Dewpoint:-12.0°C ( 10°F) [RH = 92%]
Pressure (altimeter):29.71 inches Hg (1006.2 mb)
Winds:from the E (80 degrees) at 10 MPH (9 knots; 4.6 m/s)
Visibility: 4 sm ( 6 km)
Ceiling:2400 feet AGL
Clouds: few clouds at 900 feet AGL, overcast cloud deck at 2400 feet AGL
Weather:-SN BR (light snow, mist)
QC Flag:automated observation with no human augmentation
Text:KFNL 191008Z AUTO 08008KT 4SM -SN BR SCT009 BKN014 OVC022 M11/M12 A2971 RMK AO2 P0000 FZRANO
Temperature:-11.0°C ( 12°F)
Dewpoint:-12.0°C ( 10°F) [RH = 92%]
Pressure (altimeter):29.71 inches Hg (1006.2 mb)
Winds:from the E (80 degrees) at 9 MPH (8 knots; 4.1 m/s)
Visibility: 4 sm ( 6 km)
Ceiling:1400 feet AGL
Clouds: scattered clouds at 900 feet AGL, broken clouds at 1400 feet AGL, overcast cloud deck at 2200 feet AGL
Weather:-SN BR (light snow, mist)
QC Flag:automated observation with no human augmentation
Text:KFNL 190956Z AUTO 07008KT 4SM -SN BR FEW009 SCT014 OVC020 M10/M12 A2971 RMK AO2 SLP057 P0000 T11001117 FZRANO
Temperature:-10.0°C ( 14°F)
Dewpoint:-11.7°C ( 11°F) [RH = 87%]
Pressure (altimeter):29.71 inches Hg (1006.2 mb) [Sea level pressure: 1005.7 mb]
Winds:from the ENE (70 degrees) at 9 MPH (8 knots; 4.1 m/s)
Visibility: 4 sm ( 6 km)
Ceiling:2000 feet AGL
Clouds: few clouds at 900 feet AGL, scattered clouds at 1400 feet AGL, overcast cloud deck at 2000 feet AGL
Weather:-SN BR (light snow, mist)
QC Flag:automated observation with no human augmentation
Text:KFNL 190931Z AUTO 08009KT 4SM -SN BR SCT007 OVC017 M10/M12 A2971 RMK AO2 P0000 FZRANO
Temperature:-10.0°C ( 14°F)
Dewpoint:-12.0°C ( 10°F) [RH = 85%]
Pressure (altimeter):29.71 inches Hg (1006.2 mb)
Winds:from the E (80 degrees) at 10 MPH (9 knots; 4.6 m/s)
Visibility: 4 sm ( 6 km)
Ceiling:1700 feet AGL
Clouds: scattered clouds at 700 feet AGL, overcast cloud deck at 1700 feet AGL
Weather:-SN BR (light snow, mist)
QC Flag:automated observation with no human augmentation
Text:KFNL 190856Z AUTO 06010KT 4SM -SN BR BKN007 OVC013 M09/M11 A2972 RMK AO2 UPE23SNB23 CIG 006V010 SLP058 P0000 60000 T10941111 51017 FZRANO
Temperature: -9.4°C ( 15°F)
Dewpoint:-11.1°C ( 12°F) [RH = 87%]
Pressure (altimeter):29.72 inches Hg (1006.5 mb) [Sea level pressure: 1005.8 mb]
Winds:from the ENE (60 degrees) at 12 MPH (10 knots; 5.1 m/s)
Visibility: 4 sm ( 6 km)
Ceiling:700 feet AGL
Clouds: broken clouds at 700 feet AGL, overcast cloud deck at 1300 feet AGL
Weather:-SN BR (light snow, mist)
QC Flag:automated observation with no human augmentation
Text:KFNL 190756Z AUTO 07009KT 5SM UP BR OVC009 M09/M10 A2971 RMK AO2 CIG 006V012 SLP056 P0000 T10891100 FZRANO
Temperature: -8.9°C ( 16°F)
Dewpoint:-10.0°C ( 14°F) [RH = 92%]
Pressure (altimeter):29.71 inches Hg (1006.2 mb) [Sea level pressure: 1005.6 mb]
Winds:from the ENE (70 degrees) at 10 MPH (9 knots; 4.6 m/s)
Visibility: 5 sm ( 8 km)
Ceiling:900 feet AGL
Clouds: overcast cloud deck at 900 feet AGL
Weather:BR UP (mist, unknown precipitation)
QC Flag:automated observation with no human augmentation
Text:KFNL 190717Z AUTO 04009KT 4SM UP BR OVC009 M08/M09 A2970 RMK AO2 CIG 006V012 P0000 FZRANO
Temperature: -8.0°C ( 18°F)
Dewpoint: -9.0°C ( 16°F) [RH = 92%]
Pressure (altimeter):29.70 inches Hg (1005.8 mb)
Winds:from the NE (40 degrees) at 10 MPH (9 knots; 4.6 m/s)
Visibility: 4 sm ( 6 km)
Ceiling:900 feet AGL
Clouds: overcast cloud deck at 900 feet AGL
Weather:BR UP (mist, unknown precipitation)
QC Flag:automated observation with no human augmentation
Text:KFNL 190656Z AUTO 06013G17KT 4SM UP BR OVC011 M08/M09 A2969 RMK AO2 UPB20SNE20 SLP047 P0000 T10781094 401831078 FZRANO
Temperature: -7.8°C ( 18°F)
Dewpoint: -9.4°C ( 15°F) [RH = 88%]
Pressure (altimeter):29.69 inches Hg (1005.5 mb) [Sea level pressure: 1004.7 mb]
Winds:from the ENE (60 degrees) at 15 MPH (13 knots; 6.7 m/s) gusting to 20 MPH (17 knots; 8.7 m/s)
Visibility: 4 sm ( 6 km)
Ceiling:1100 feet AGL
Clouds: overcast cloud deck at 1100 feet AGL
Weather:BR UP (mist, unknown precipitation)
QC Flag:automated observation with no human augmentation
Text:KFNL 190556Z AUTO 06010KT 10SM -SN OVC011 M05/M08 A2966 RMK AO2 SNB15E29B56 SLP031 P0000 60000 T10501083 10156 21050 51027 FZRANO
Temperature: -5.0°C ( 23°F)
Dewpoint: -8.3°C ( 17°F) [RH = 78%]
Pressure (altimeter):29.66 inches Hg (1004.5 mb) [Sea level pressure: 1003.1 mb]
Winds:from the ENE (60 degrees) at 12 MPH (10 knots; 5.1 m/s)
Visibility:10 or more sm (16+ km)
Ceiling:1100 feet AGL
Clouds: overcast cloud deck at 1100 feet AGL
Weather:-SN (light snow)
QC Flag:automated observation with no human augmentation
Text:KFNL 190456Z AUTO 03011KT 10SM OVC011 M04/M07 A2964 RMK AO2 SLP024 T10391067 FZRANO
Temperature: -3.9°C ( 25°F)
Dewpoint: -6.7°C ( 20°F) [RH = 81%]
Pressure (altimeter):29.64 inches Hg (1003.8 mb) [Sea level pressure: 1002.4 mb]
Winds:from the NNE (30 degrees) at 13 MPH (11 knots; 5.7 m/s)
Visibility:10 or more sm (16+ km)
Ceiling:1100 feet AGL
Clouds: overcast cloud deck at 1100 feet AGL
QC Flag:automated observation with no human augmentation
Text:KFNL 190356Z AUTO 04012KT 10SM OVC011 M03/M06 A2963 RMK AO2 SLP020 T10281056 FZRANO
Temperature: -2.8°C ( 27°F)
Dewpoint: -5.6°C ( 22°F) [RH = 81%]
Pressure (altimeter):29.63 inches Hg (1003.5 mb) [Sea level pressure: 1002.0 mb]
Winds:from the NE (40 degrees) at 14 MPH (12 knots; 6.2 m/s)
Visibility:10 or more sm (16+ km)
Ceiling:1100 feet AGL
Clouds: overcast cloud deck at 1100 feet AGL
QC Flag:automated observation with no human augmentation
Text:KFNL 190256Z AUTO 03022KT 10SM OVC011 M02/M04 A2957 RMK AO2 PK WND 03031/0159 SLP001 T10171044 53044 FZRANO
Temperature: -1.7°C ( 29°F)
Dewpoint: -4.4°C ( 24°F) [RH = 82%]
Pressure (altimeter):29.57 inches Hg (1001.4 mb) [Sea level pressure: 1000.1 mb]
Winds:from the NNE (30 degrees) at 25 MPH (22 knots; 11.3 m/s)
Visibility:10 or more sm (16+ km)
Ceiling:1100 feet AGL
Clouds: overcast cloud deck at 1100 feet AGL
QC Flag:automated observation with no human augmentation
Text:KFNL 190235Z AUTO 03020G27KT 10SM OVC013 M01/M04 A2956 RMK AO2 PK WND 03031/0159 FZRANO
Temperature: -1.0°C ( 30°F)
Dewpoint: -4.0°C ( 25°F) [RH = 80%]
Pressure (altimeter):29.56 inches Hg (1001.1 mb)
Winds:from the NNE (30 degrees) at 23 MPH (20 knots; 10.3 m/s) gusting to 31 MPH (27 knots; 13.9 m/s)
Visibility:10 or more sm (16+ km)
Ceiling:1300 feet AGL
Clouds: overcast cloud deck at 1300 feet AGL
QC Flag:automated observation with no human augmentation
Text:KFNL 190223Z AUTO 02021G28KT 10SM BKN015 00/M03 A2955 RMK AO2 PK WND 03031/0159 FZRANO
Temperature: 0.0°C ( 32°F)
Dewpoint: -3.0°C ( 27°F) [RH = 80%]
Pressure (altimeter):29.55 inches Hg (1000.8 mb)
Winds:from the NNE (20 degrees) at 24 MPH (21 knots; 10.8 m/s) gusting to 32 MPH (28 knots; 14.4 m/s)
Visibility:10 or more sm (16+ km)
Ceiling:1500 feet AGL
Clouds: broken clouds at 1500 feet AGL
QC Flag:automated observation with no human augmentation
Text:KFNL 190156Z AUTO 06024G33KT 10SM CLR 03/M03 A2949 RMK AO2 PK WND 05033/0152 WSHFT 0136 PRESRR SLP967 T00281033
Temperature: 2.8°C ( 37°F)
Dewpoint: -3.3°C ( 26°F) [RH = 64%]
Pressure (altimeter):29.49 inches Hg ( 998.7 mb) [Sea level pressure: 996.7 mb]
Winds:from the ENE (60 degrees) at 28 MPH (24 knots; 12.3 m/s) gusting to 38 MPH (33 knots; 17.0 m/s)
Visibility:10 or more sm (16+ km)
Ceiling:at least 12,000 feet AGL
Clouds:sky clear below 12,000 feet AGL
QC Flag:automated observation with no human augmentation
Text:KFNL 190056Z AUTO 19007KT 10SM CLR 12/M11 A2943 RMK AO2 SLP930 T01171106
Temperature: 11.7°C ( 53°F)
Dewpoint:-10.6°C ( 13°F) [RH = 20%]
Pressure (altimeter):29.43 inches Hg ( 996.7 mb) [Sea level pressure: 993.0 mb]
Winds:from the S (190 degrees) at 8 MPH (7 knots; 3.6 m/s)
Visibility:10 or more sm (16+ km)
Ceiling:at least 12,000 feet AGL
Clouds:sky clear below 12,000 feet AGL
QC Flag:automated observation with no human augmentation
Text:KFNL 182356Z AUTO 28007KT 10SM CLR 16/M10 A2942 RMK AO2 PK WND 26027/2259 SLP928 T01561100 10183 20156 53004
Temperature: 15.6°C ( 60°F)
Dewpoint:-10.0°C ( 14°F) [RH = 16%]
Pressure (altimeter):29.42 inches Hg ( 996.4 mb) [Sea level pressure: 992.8 mb]
Winds:from the W (280 degrees) at 8 MPH (7 knots; 3.6 m/s)
Visibility:10 or more sm (16+ km)
Ceiling:at least 12,000 feet AGL
Clouds:sky clear below 12,000 feet AGL
QC Flag:automated observation with no human augmentation
Text:KFNL 182256Z AUTO 28016G23KT 10SM CLR 17/M09 A2941 RMK AO2 PK WND 26036/2216 SLP927 T01671094
Temperature: 16.7°C ( 62°F)
Dewpoint: -9.4°C ( 15°F) [RH = 16%]
Pressure (altimeter):29.41 inches Hg ( 996.0 mb) [Sea level pressure: 992.7 mb]
Winds:from the W (280 degrees) at 18 MPH (16 knots; 8.2 m/s) gusting to 26 MPH (23 knots; 11.8 m/s)
Visibility:10 or more sm (16+ km)
Ceiling:at least 12,000 feet AGL
Clouds:sky clear below 12,000 feet AGL
QC Flag:automated observation with no human augmentation
Text:KFNL 182156Z AUTO 27020G31KT 10SM CLR 17/M10 A2941 RMK AO2 PK WND 27033/2111 SLP927 T01721100
Temperature: 17.2°C ( 63°F)
Dewpoint:-10.0°C ( 14°F) [RH = 15%]
Pressure (altimeter):29.41 inches Hg ( 996.0 mb) [Sea level pressure: 992.7 mb]
Winds:from the W (270 degrees) at 23 MPH (20 knots; 10.3 m/s) gusting to 36 MPH (31 knots; 15.9 m/s)
Visibility:10 or more sm (16+ km)
Ceiling:at least 12,000 feet AGL
Clouds:sky clear below 12,000 feet AGL
QC Flag:automated observation with no human augmentation